Vitagrace — 9HA2036 — position and weather

sailwx.info

Track history (hours):
 
Tides and Currents Weather Stations Pressure Air Temp Water Temp Dewpoint Dewpoint Depression Visibility Wind Speed Wind Dir Waves Ship Positions

Vitagrace

Last reported at 2017-Dec-11 05:30 UTC. Time now 2017-Dec-11 05:34 UTC.
Position N 36°00' W 007°07'.

Length 225 m; draft 11.8 m.

Type: Cargo ship. MMSI: 249840000.

Date/timePositionNaut miles runAvg speedWind from/ knotsBaromVisibWave heightAir tempDewpointWater temp
2017-Dec-11 05:30N 36°00' W 007°07'4 8.4
2017-Dec-11 05:00N 35°60' W 007°02'31210.4
2017-Dec-09 22:55N 36°36' W 000°38'3811.7
2017-Dec-09 19:41N 36°44' E 000°08'211.9
2017-Dec-09 19:29N 36°44' E 000°11'  
2017-Dec-07 10:42N 36°43' E 013°13'311.9
2017-Dec-07 10:26N 36°42' E 013°17'1912.0
2017-Dec-07 08:48N 36°35' E 013°39'412.0
2017-Dec-07 08:26N 36°34' E 013°45'512.1
2017-Dec-07 08:00N 36°32' E 013°51'612.2
2017-Dec-07 07:30N 36°29' E 013°58'611.9
2017-Dec-07 07:00N 36°27' E 014°05'611.7
2017-Dec-07 06:30N 36°25' E 014°11'611.9
2017-Dec-07 06:00N 36°23' E 014°18'611.7
2017-Dec-07 05:30N 36°21' E 014°25'611.7
2017-Dec-07 05:00N 36°21' E 014°32'611.7
2017-Dec-07 04:30N 36°20' E 014°40'611.4
2017-Dec-07 04:00N 36°20' E 014°47'  
2017-Dec-02 21:55N 43°13' E 035°24'3512.4
2017-Dec-02 19:04N 43°23' E 036°11'112.0
2017-Dec-02 19:00N 43°23' E 036°12'712.0
2017-Dec-02 18:23N 43°25' E 036°21'512.0
2017-Dec-02 18:00N 43°27' E 036°28'612.2
2017-Dec-02 17:30N 43°28' E 036°36'612.2
2017-Dec-02 17:01N 43°30' E 036°44'612.3
2017-Dec-02 16:30N 43°31' E 036°52'612.3
2017-Dec-02 16:00N 43°33' E 036°60'612.2
2017-Dec-02 15:30N 43°35' E 037°08'612.3
2017-Dec-02 15:00N 43°37' E 037°16'612.3
2017-Dec-02 14:30N 43°39' E 037°24'612.5
2017-Dec-02 14:00N 43°41' E 037°32'612.4
2017-Dec-02 13:30N 43°42' E 037°41'612.4
2017-Dec-02 13:00N 43°44' E 037°49'612.3
2017-Dec-02 12:30N 43°46' E 037°57'612.4
2017-Dec-02 12:00N 43°47' E 038°05'612.2
2017-Dec-02 11:30N 43°49' E 038°13'612.0
2017-Dec-02 11:01N 43°51' E 038°22'612.2
2017-Dec-02 10:30N 43°52' E 038°30'612.3
2017-Dec-02 10:01N 43°54' E 038°38'612.1
2017-Dec-02 09:30N 43°56' E 038°46'612.1
2017-Dec-02 09:00N 43°58' E 038°54'611.8
2017-Dec-02 08:30N 44°00' E 039°01'5 9.6
2017-Dec-02 08:00N 44°04' E 039°04'1 2.0
2017-Dec-02 07:30N 44°05' E 039°04'0 0.0
2017-Dec-02 07:00N 44°06' E 039°04'0 0.0
2017-Dec-02 06:30N 44°06' E 039°04'0 0.0
2017-Dec-02 06:00N 44°06' E 039°04'0 0.0
2017-Dec-02 05:30N 44°06' E 039°04'0 0.0
2017-Dec-02 05:00N 44°06' E 039°04'0 0.0
2017-Dec-02 04:30N 44°06' E 039°04'0 0.0
2017-Dec-02 03:57N 44°06' E 039°04'0 0.0
2017-Dec-02 03:30N 44°06' E 039°04'0 0.0
2017-Dec-02 03:00N 44°06' E 039°04'0 0.0
2017-Dec-02 02:30N 44°05' E 039°04'0 0.0
2017-Dec-02 02:00N 44°06' E 039°04'0 0.0
2017-Dec-02 01:30N 44°06' E 039°04'0 0.0
2017-Dec-02 01:00N 44°06' E 039°04'0 0.0
2017-Dec-02 00:30N 44°06' E 039°04'0 0.0
2017-Dec-02 00:00N 44°06' E 039°04'0 0.0
2017-Dec-01 23:30N 44°06' E 039°04'0 0.0
2017-Dec-01 23:00N 44°06' E 039°04'0 0.0
2017-Dec-01 22:30N 44°06' E 039°04'0 0.0
2017-Dec-01 22:00N 44°06' E 039°04'0 0.0
2017-Dec-01 21:30N 44°06' E 039°04'0 0.0
2017-Dec-01 21:00N 44°06' E 039°04'0 0.0
2017-Dec-01 20:30N 44°06' E 039°04'0 0.0
2017-Dec-01 20:00N 44°05' E 039°04'0 0.0
2017-Dec-01 19:30N 44°06' E 039°04'0 0.0
2017-Dec-01 19:00N 44°06' E 039°04'0 0.0
2017-Dec-01 18:30N 44°05' E 039°04'0 0.0
2017-Dec-01 18:00N 44°06' E 039°04'0 0.0
2017-Dec-01 17:30N 44°06' E 039°04'0 0.0
2017-Dec-01 17:00N 44°06' E 039°04'0 0.0
2017-Dec-01 16:30N 44°06' E 039°04'0 0.0
2017-Dec-01 16:00N 44°06' E 039°04'0 0.0
2017-Dec-01 15:30N 44°06' E 039°04'0 0.0
2017-Dec-01 15:00N 44°06' E 039°04'0 0.0
2017-Dec-01 14:30N 44°06' E 039°04'0 0.0
2017-Dec-01 14:00N 44°06' E 039°04'0 0.0
2017-Dec-01 13:30N 44°06' E 039°04'0 0.0
2017-Dec-01 13:00N 44°06' E 039°04'0 0.0
2017-Dec-01 12:30N 44°06' E 039°04'0 0.0
2017-Dec-01 12:00N 44°06' E 039°04'0 0.0
2017-Dec-01 11:30N 44°06' E 039°04'0 0.0
2017-Dec-01 11:00N 44°06' E 039°04'0 0.0
2017-Dec-01 10:30N 44°06' E 039°04'0 0.0
2017-Dec-01 10:00N 44°06' E 039°04'0 0.0
2017-Dec-01 09:30N 44°06' E 039°04'0 0.0
2017-Dec-01 09:00N 44°06' E 039°04'0 0.0
2017-Dec-01 08:30N 44°06' E 039°04'0 0.0
2017-Dec-01 08:00N 44°06' E 039°04'0 0.0
2017-Dec-01 07:30N 44°06' E 039°04'0 0.0
2017-Dec-01 07:00N 44°06' E 039°04'0 0.0
2017-Dec-01 06:30N 44°06' E 039°04'0 0.0
2017-Dec-01 06:00N 44°06' E 039°04'  
Track history (hours):
 
Tides and Currents Weather Stations Pressure Air Temp Water Temp Dewpoint Dewpoint Depression Visibility Wind Speed Wind Dir Waves Ship Positions

Vitagrace

Last reported at 2017-Dec-11 05:30 UTC. Time now 2017-Dec-11 05:34 UTC.
Position N 36°00' W 007°07'.

Length 225 m; draft 11.8 m.

Type: Cargo ship. MMSI: 249840000.

Date/timePositionNaut miles runAvg speedWind from/ knotsBaromVisibWave heightAir tempDewpointWater temp
2017-Dec-11 05:30N 36°00' W 007°07'4 8.4
2017-Dec-11 05:00N 35°60' W 007°02'31210.4
2017-Dec-09 22:55N 36°36' W 000°38'3811.7
2017-Dec-09 19:41N 36°44' E 000°08'211.9
2017-Dec-09 19:29N 36°44' E 000°11'  
2017-Dec-07 10:42N 36°43' E 013°13'311.9
2017-Dec-07 10:26N 36°42' E 013°17'1912.0
2017-Dec-07 08:48N 36°35' E 013°39'412.0
2017-Dec-07 08:26N 36°34' E 013°45'512.1
2017-Dec-07 08:00N 36°32' E 013°51'612.2
2017-Dec-07 07:30N 36°29' E 013°58'611.9
2017-Dec-07 07:00N 36°27' E 014°05'611.7
2017-Dec-07 06:30N 36°25' E 014°11'611.9
2017-Dec-07 06:00N 36°23' E 014°18'611.7
2017-Dec-07 05:30N 36°21' E 014°25'611.7
2017-Dec-07 05:00N 36°21' E 014°32'611.7
2017-Dec-07 04:30N 36°20' E 014°40'611.4
2017-Dec-07 04:00N 36°20' E 014°47'  
2017-Dec-02 21:55N 43°13' E 035°24'3512.4
2017-Dec-02 19:04N 43°23' E 036°11'112.0
2017-Dec-02 19:00N 43°23' E 036°12'712.0
2017-Dec-02 18:23N 43°25' E 036°21'512.0
2017-Dec-02 18:00N 43°27' E 036°28'612.2
2017-Dec-02 17:30N 43°28' E 036°36'612.2
2017-Dec-02 17:01N 43°30' E 036°44'612.3
2017-Dec-02 16:30N 43°31' E 036°52'612.3
2017-Dec-02 16:00N 43°33' E 036°60'612.2
2017-Dec-02 15:30N 43°35' E 037°08'612.3
2017-Dec-02 15:00N 43°37' E 037°16'612.3
2017-Dec-02 14:30N 43°39' E 037°24'612.5
2017-Dec-02 14:00N 43°41' E 037°32'612.4
2017-Dec-02 13:30N 43°42' E 037°41'612.4
2017-Dec-02 13:00N 43°44' E 037°49'612.3
2017-Dec-02 12:30N 43°46' E 037°57'612.4
2017-Dec-02 12:00N 43°47' E 038°05'612.2
2017-Dec-02 11:30N 43°49' E 038°13'612.0
2017-Dec-02 11:01N 43°51' E 038°22'612.2
2017-Dec-02 10:30N 43°52' E 038°30'612.3
2017-Dec-02 10:01N 43°54' E 038°38'612.1
2017-Dec-02 09:30N 43°56' E 038°46'612.1
2017-Dec-02 09:00N 43°58' E 038°54'611.8
2017-Dec-02 08:30N 44°00' E 039°01'5 9.6
2017-Dec-02 08:00N 44°04' E 039°04'1 2.0
2017-Dec-02 07:30N 44°05' E 039°04'0 0.0
2017-Dec-02 07:00N 44°06' E 039°04'0 0.0
2017-Dec-02 06:30N 44°06' E 039°04'0 0.0
2017-Dec-02 06:00N 44°06' E 039°04'0 0.0
2017-Dec-02 05:30N 44°06' E 039°04'0 0.0
2017-Dec-02 05:00N 44°06' E 039°04'0 0.0
2017-Dec-02 04:30N 44°06' E 039°04'0 0.0
2017-Dec-02 03:57N 44°06' E 039°04'0 0.0
2017-Dec-02 03:30N 44°06' E 039°04'0 0.0
2017-Dec-02 03:00N 44°06' E 039°04'0 0.0
2017-Dec-02 02:30N 44°05' E 039°04'0 0.0
2017-Dec-02 02:00N 44°06' E 039°04'0 0.0
2017-Dec-02 01:30N 44°06' E 039°04'0 0.0
2017-Dec-02 01:00N 44°06' E 039°04'0 0.0
2017-Dec-02 00:30N 44°06' E 039°04'0 0.0
2017-Dec-02 00:00N 44°06' E 039°04'0 0.0
2017-Dec-01 23:30N 44°06' E 039°04'0 0.0
2017-Dec-01 23:00N 44°06' E 039°04'0 0.0
2017-Dec-01 22:30N 44°06' E 039°04'0 0.0
2017-Dec-01 22:00N 44°06' E 039°04'0 0.0
2017-Dec-01 21:30N 44°06' E 039°04'0 0.0
2017-Dec-01 21:00N 44°06' E 039°04'0 0.0
2017-Dec-01 20:30N 44°06' E 039°04'0 0.0
2017-Dec-01 20:00N 44°05' E 039°04'0 0.0
2017-Dec-01 19:30N 44°06' E 039°04'0 0.0
2017-Dec-01 19:00N 44°06' E 039°04'0 0.0
2017-Dec-01 18:30N 44°05' E 039°04'0 0.0
2017-Dec-01 18:00N 44°06' E 039°04'0 0.0
2017-Dec-01 17:30N 44°06' E 039°04'0 0.0
2017-Dec-01 17:00N 44°06' E 039°04'0 0.0
2017-Dec-01 16:30N 44°06' E 039°04'0 0.0
2017-Dec-01 16:00N 44°06' E 039°04'0 0.0
2017-Dec-01 15:30N 44°06' E 039°04'0 0.0
2017-Dec-01 15:00N 44°06' E 039°04'0 0.0
2017-Dec-01 14:30N 44°06' E 039°04'0 0.0
2017-Dec-01 14:00N 44°06' E 039°04'0 0.0
2017-Dec-01 13:30N 44°06' E 039°04'0 0.0
2017-Dec-01 13:00N 44°06' E 039°04'0 0.0
2017-Dec-01 12:30N 44°06' E 039°04'0 0.0
2017-Dec-01 12:00N 44°06' E 039°04'0 0.0
2017-Dec-01 11:30N 44°06' E 039°04'0 0.0
2017-Dec-01 11:00N 44°06' E 039°04'0 0.0
2017-Dec-01 10:30N 44°06' E 039°04'0 0.0
2017-Dec-01 10:00N 44°06' E 039°04'0 0.0
2017-Dec-01 09:30N 44°06' E 039°04'0 0.0
2017-Dec-01 09:00N 44°06' E 039°04'0 0.0
2017-Dec-01 08:30N 44°06' E 039°04'0 0.0
2017-Dec-01 08:00N 44°06' E 039°04'0 0.0
2017-Dec-01 07:30N 44°06' E 039°04'0 0.0
2017-Dec-01 07:00N 44°06' E 039°04'0 0.0
2017-Dec-01 06:30N 44°06' E 039°04'0 0.0
2017-Dec-01 06:00N 44°06' E 039°04'  

Dump ship's entire track history